createdAt,value
2018-03-15T00:01:08.039Z,82.85
2018-03-15T00:02:17.763Z,83.04
2018-03-15T00:03:27.228Z,82.85
2018-03-15T00:04:37.225Z,82.66
2018-03-15T00:05:47.217Z,82.38
2018-03-15T00:06:57.208Z,82.19
2018-03-15T00:08:06.715Z,81.91
2018-03-15T00:09:16.168Z,82.57
2018-03-15T00:10:26.155Z,83.23
2018-03-15T00:11:35.887Z,83.23
2018-03-15T00:12:45.891Z,83.42
2018-03-15T00:13:55.886Z,83.33
2018-03-15T00:15:05.620Z,83.61
2018-03-15T00:16:15.624Z,82.95
2018-03-15T00:17:25.352Z,83.23
2018-03-15T00:18:35.351Z,83.23
2018-03-15T00:19:45.340Z,83.04
2018-03-15T00:20:55.330Z,83.14
2018-03-15T00:22:05.064Z,83.51
2018-03-15T00:23:15.050Z,83.61
2018-03-15T00:24:24.772Z,83.61
2018-03-15T00:25:34.288Z,82.95
2018-03-15T00:26:44.015Z,83.33
2018-03-15T00:27:54.009Z,83.04
2018-03-15T00:29:03.466Z,83.23
2018-03-15T00:30:13.194Z,82.47
2018-03-15T00:31:23.184Z,82.66
2018-03-15T00:32:33.182Z,82.66
2018-03-15T00:33:42.372Z,82.66
2018-03-15T00:34:52.376Z,83.14
2018-03-15T00:36:02.170Z,83.42
2018-03-15T00:37:11.478Z,83.61
2018-03-15T00:38:21.469Z,83.7
2018-03-15T00:39:30.924Z,83.89
2018-03-15T00:40:40.506Z,84.17
2018-03-15T00:41:49.974Z,83.8
2018-03-15T00:42:59.701Z,83.14
2018-03-15T00:44:09.696Z,83.14
2018-03-15T00:45:19.691Z,82.95
2018-03-15T00:46:29.146Z,82.66
2018-03-15T00:47:39.143Z,82.95
2018-03-15T00:48:49.140Z,83.14
2018-03-15T00:49:59.134Z,83.23
2018-03-15T00:51:08.855Z,83.14
2018-03-15T00:52:18.314Z,83.42
2018-03-15T00:53:28.304Z,83.14
2018-03-15T00:54:38.092Z,83.8
2018-03-15T00:55:48.107Z,83.61
2018-03-15T00:56:57.827Z,83.98
2018-03-15T00:58:07.559Z,83.8
2018-03-15T00:59:17.721Z,84.17
2018-03-15T01:00:27.438Z,84.36
2018-03-15T01:01:37.444Z,83.98
2018-03-15T01:02:47.165Z,83.94
2018-03-15T01:03:56.894Z,84.27
2018-03-15T01:05:06.620Z,84.45
2018-03-15T01:06:16.622Z,84.98
2018-03-15T01:07:26.617Z,84.51
2018-03-15T01:08:36.617Z,85.07
2018-03-15T01:09:46.346Z,85.73
2018-03-15T01:10:56.347Z,84.88
2018-03-15T01:12:06.075Z,85.45
2018-03-15T01:13:15.537Z,85.17
2018-03-15T01:14:25.532Z,85.17
2018-03-15T01:15:35.264Z,84.69
2018-03-15T01:16:45.260Z,84.51
2018-03-15T01:17:55.366Z,85.26
2018-03-15T01:19:05.093Z,85.26
2018-03-15T01:20:15.082Z,84.98
2018-03-15T01:21:25.069Z,85.17
2018-03-15T01:22:35.057Z,85.36
2018-03-15T01:23:45.054Z,85.36
2018-03-15T01:24:55.048Z,86.11
2018-03-15T01:26:05.041Z,86.02
2018-03-15T01:27:14.864Z,86.58
2018-03-15T01:28:24.854Z,86.77
2018-03-15T01:29:34.847Z,85.92
2018-03-15T01:30:44.040Z,85.83
2018-03-15T01:31:53.498Z,86.21
2018-03-15T01:33:03.224Z,86.21
2018-03-15T01:34:12.948Z,85.36
2018-03-15T01:35:22.938Z,85.64
2018-03-15T01:36:32.940Z,85.64
2018-03-15T01:37:42.131Z,85.73
2018-03-15T01:38:51.854Z,85.73
2018-03-15T01:40:01.584Z,85.73
2018-03-15T01:41:10.770Z,85.64
2018-03-15T01:42:19.956Z,85.64
2018-03-15T01:43:29.990Z,85.07
2018-03-15T01:44:39.987Z,85.07
2018-03-15T01:45:49.714Z,85.45
2018-03-15T01:46:59.715Z,85.64
2018-03-15T01:48:09.449Z,85.83
2018-03-15T01:49:19.450Z,86.11
2018-03-15T01:50:28.641Z,86.21
2018-03-15T01:51:38.647Z,86.77
2018-03-15T01:52:48.643Z,86.49
2018-03-15T01:53:58.664Z,86.68
2018-03-15T01:55:08.656Z,86.68
2018-03-15T01:56:18.649Z,86.4
2018-03-15T01:57:28.643Z,86.87
2018-03-15T01:58:38.373Z,87.05
2018-03-15T01:59:48.371Z,87.15
2018-03-15T02:00:58.100Z,87.15
2018-03-15T02:02:07.301Z,87.15
2018-03-15T02:03:17.031Z,87.43
2018-03-15T02:04:27.178Z,87.71
2018-03-15T02:05:37.164Z,88.37
2018-03-15T02:06:46.885Z,88.37
2018-03-15T02:07:56.612Z,87.24
2018-03-15T02:09:06.633Z,87.15
2018-03-15T02:10:16.640Z,87.15
2018-03-15T02:11:26.090Z,87.15
2018-03-15T02:12:36.090Z,86.96
2018-03-15T02:13:46.075Z,86.58
2018-03-15T02:14:56.067Z,86.58
2018-03-15T02:16:05.787Z,86.3
2018-03-15T02:17:15.294Z,86.58
2018-03-15T02:18:25.021Z,86.58
2018-03-15T02:19:35.014Z,86.3
2018-03-15T02:20:45.014Z,86.4
2018-03-15T02:21:55.045Z,86.49
2018-03-15T02:23:04.804Z,86.4
2018-03-15T02:24:14.533Z,86.58
2018-03-15T02:25:24.523Z,86.96
2018-03-15T02:26:33.979Z,86.87
2018-03-15T02:27:43.973Z,87.15
2018-03-15T02:28:53.433Z,86.4
2018-03-15T02:30:03.156Z,87.34
2018-03-15T02:31:12.892Z,87.15
2018-03-15T02:32:22.901Z,87.34
2018-03-15T02:33:32.902Z,87.15
2018-03-15T02:34:42.910Z,87.52
2018-03-15T02:35:52.936Z,87.71
2018-03-15T02:37:02.936Z,88.18
2018-03-15T02:38:12.942Z,89.03
2018-03-15T02:39:23.006Z,89.32
2018-03-15T02:40:32.803Z,89.32
2018-03-15T02:41:42.830Z,88.56
2018-03-15T02:42:52.567Z,89.69
2018-03-15T02:44:02.309Z,89.51
2018-03-15T02:45:12.311Z,88.94
2018-03-15T02:46:22.047Z,89.03
2018-03-15T02:47:32.053Z,89.41
2018-03-15T02:48:41.798Z,89.13
2018-03-15T02:49:51.788Z,88.94
2018-03-15T02:51:01.513Z,89.22
2018-03-15T02:52:11.519Z,89.41
2018-03-15T02:53:21.574Z,88.65
2018-03-15T02:54:31.567Z,88.84
2018-03-15T02:55:41.295Z,87.99
2018-03-15T02:56:51.331Z,88.18
2018-03-15T02:58:01.074Z,89.51
2018-03-15T02:59:10.551Z,89.98
2018-03-15T03:00:20.544Z,88.94
2018-03-15T03:01:30.276Z,88.94
2018-03-15T03:02:40.340Z,88.94
2018-03-15T03:03:50.335Z,88.94
2018-03-15T03:05:00.345Z,88.94
2018-03-15T03:06:10.079Z,89.88
2018-03-15T03:07:19.814Z,89.69
2018-03-15T03:08:29.820Z,89.13
2018-03-15T03:09:39.816Z,88.47
2018-03-15T03:10:49.547Z,88.37
2018-03-15T03:11:59.277Z,88.75
2018-03-15T03:13:09.280Z,90.07
2018-03-15T03:14:19.059Z,91.2
2018-03-15T03:15:28.782Z,92.24
2018-03-15T03:16:38.775Z,92.43
2018-03-15T03:17:48.505Z,92.14
2018-03-15T03:18:58.239Z,92.43
2018-03-15T03:20:07.738Z,92.05
2018-03-15T03:21:17.797Z,92.24
2018-03-15T03:22:27.786Z,92.29
2018-03-15T03:23:36.972Z,91.86
2018-03-15T03:24:47.003Z,92.38
2018-03-15T03:25:56.995Z,92.1
2018-03-15T03:27:06.452Z,92.85
2018-03-15T03:28:16.505Z,92.66
2018-03-15T03:29:26.557Z,92.85
2018-03-15T03:30:36.552Z,93.04
2018-03-15T03:31:45.752Z,93.65
2018-03-15T03:32:55.742Z,93.37
2018-03-15T03:34:05.732Z,93.94
2018-03-15T03:35:15.726Z,93.75
2018-03-15T03:36:25.449Z,92.05
2018-03-15T03:37:35.185Z,92.05
2018-03-15T03:38:45.177Z,91.2
2018-03-15T03:39:55.171Z,91.11
2018-03-15T03:41:04.903Z,90.64
2018-03-15T03:42:14.624Z,90.92
2018-03-15T03:43:24.620Z,90.73
2018-03-15T03:44:34.611Z,90.73
2018-03-15T03:45:44.334Z,90.73
2018-03-15T03:46:54.057Z,90.73
2018-03-15T03:48:03.784Z,90.83
2018-03-15T03:49:13.513Z,90.92
2018-03-15T03:50:23.512Z,91.11
2018-03-15T03:51:32.970Z,91.49
2018-03-15T03:52:42.956Z,92.33
2018-03-15T03:53:52.144Z,92.05
2018-03-15T03:55:01.867Z,92.99
2018-03-15T03:56:11.322Z,92.71
2018-03-15T03:57:21.314Z,92.24
2018-03-15T03:58:31.303Z,91.77
2018-03-15T03:59:41.032Z,91.11
2018-03-15T04:03:26.723Z,91.11
2018-03-15T04:04:36.725Z,91.86
2018-03-15T04:05:46.444Z,91.58
2018-03-15T04:06:56.166Z,91.49
2018-03-15T04:08:05.894Z,90.92
2018-03-15T04:09:15.918Z,91.3
2018-03-15T04:10:25.905Z,91.11
2018-03-15T04:11:35.896Z,91.02
2018-03-15T04:12:45.890Z,90.45
2018-03-15T04:13:55.883Z,89.69
2018-03-15T04:15:05.608Z,90.64
2018-03-15T04:16:15.609Z,90.92
2018-03-15T04:17:25.600Z,91.86
2018-03-15T04:18:35.595Z,91.86
2018-03-15T04:19:45.596Z,91.77
2018-03-15T04:20:55.704Z,91.02
2018-03-15T04:22:05.436Z,90.73
2018-03-15T04:23:15.427Z,90.45
2018-03-15T04:24:25.429Z,89.51
2018-03-15T04:25:35.152Z,89.69
2018-03-15T04:26:44.875Z,90.07
2018-03-15T04:27:54.063Z,89.98
2018-03-15T04:29:03.566Z,89.6
2018-03-15T04:30:13.292Z,89.79
2018-03-15T04:31:22.751Z,89.69
2018-03-15T04:32:32.742Z,89.98
2018-03-15T04:33:42.742Z,90.17
2018-03-15T04:34:52.737Z,90.17
2018-03-15T04:36:02.738Z,90.07
2018-03-15T04:37:12.230Z,90.07
2018-03-15T04:38:22.230Z,91.11
2018-03-15T04:39:31.953Z,92.33
2018-03-15T04:40:41.945Z,92.14
2018-03-15T04:41:51.931Z,91.86
2018-03-15T04:43:01.920Z,91.2
2018-03-15T04:44:11.383Z,91.77
2018-03-15T04:45:20.852Z,91.11
2018-03-15T04:46:30.847Z,91.96
2018-03-15T04:47:40.955Z,91.3
2018-03-15T04:48:50.948Z,90.73
2018-03-15T04:50:04.937Z,90.55
2018-03-15T04:51:15.045Z,90.64
2018-03-15T04:52:25.040Z,90.64
2018-03-15T04:53:35.028Z,89.98
2018-03-15T04:54:45.028Z,90.55
2018-03-15T04:55:54.766Z,90.73
2018-03-15T04:57:04.488Z,90.17
2018-03-15T04:58:13.940Z,90.26
2018-03-15T04:59:23.395Z,90.55
2018-03-15T05:00:32.853Z,90.45
2018-03-15T05:01:42.905Z,90.55
2018-03-15T05:02:52.630Z,90.55
2018-03-15T05:04:02.620Z,90.73
2018-03-15T05:05:12.625Z,91.11
2018-03-15T05:06:22.346Z,90.45
2018-03-15T05:07:32.077Z,90.26
2018-03-15T05:08:42.065Z,90.36
2018-03-15T05:09:52.062Z,90.17
2018-03-15T05:11:02.109Z,90.73
2018-03-15T05:12:12.174Z,90.73
2018-03-15T05:13:21.958Z,89.69
2018-03-15T05:14:31.419Z,89.22
2018-03-15T05:15:40.873Z,88.75
2018-03-15T05:16:50.857Z,88.65
2018-03-15T05:18:00.315Z,88.37
2018-03-15T05:19:09.773Z,90.17
2018-03-15T05:20:19.765Z,90.55
2018-03-15T05:21:29.224Z,90.26
2018-03-15T05:22:38.418Z,89.98
2018-03-15T05:23:48.403Z,90.73
2018-03-15T05:24:58.395Z,90.07
2018-03-15T05:26:08.378Z,90.45
2018-03-15T05:27:18.376Z,89.79
2018-03-15T05:28:28.383Z,89.69
2018-03-15T05:29:38.103Z,89.79
2018-03-15T05:30:48.095Z,89.88
2018-03-15T05:31:58.088Z,89.79
2018-03-15T05:33:07.546Z,90.07
2018-03-15T05:34:17.267Z,89.03
2018-03-15T05:35:26.988Z,90.07
2018-03-15T05:36:36.987Z,89.6
2018-03-15T05:37:46.985Z,89.98
2018-03-15T05:38:56.442Z,88.47
2018-03-15T05:40:06.439Z,88.09
2018-03-15T05:41:16.431Z,88.18
2018-03-15T05:42:26.424Z,87.99
2018-03-15T05:43:36.150Z,88.28
2018-03-15T05:44:46.144Z,88.84
2018-03-15T05:45:56.259Z,89.13
2018-03-15T05:47:05.988Z,89.69
2018-03-15T05:48:15.450Z,90.64
2018-03-15T05:49:25.185Z,90.55
2018-03-15T05:50:35.174Z,90.17
2018-03-15T05:51:44.628Z,90.07
2018-03-15T05:52:54.092Z,89.69
2018-03-15T05:54:03.812Z,89.79
2018-03-15T05:55:13.537Z,89.79
2018-03-15T05:56:22.723Z,89.13
2018-03-15T05:57:32.711Z,89.69
2018-03-15T05:58:42.716Z,89.32
2018-03-15T05:59:52.751Z,88.56
2018-03-15T06:01:02.756Z,88.37
2018-03-15T06:02:12.224Z,88.56
2018-03-15T06:03:22.213Z,89.13
2018-03-15T06:04:31.137Z,89.79
2018-03-15T06:05:40.866Z,89.88
2018-03-15T06:06:50.856Z,89.51
2018-03-15T06:08:00.845Z,88.56
2018-03-15T06:09:10.573Z,88.47
2018-03-15T06:10:20.570Z,88.75
2018-03-15T06:11:30.565Z,88.65
2018-03-15T06:12:40.022Z,88.37
2018-03-15T06:13:49.744Z,88.18
2018-03-15T06:14:58.956Z,88.65
2018-03-15T06:16:08.954Z,88.56
2018-03-15T06:17:18.144Z,89.03
2018-03-15T06:18:28.136Z,88.37
2018-03-15T06:19:38.138Z,88.47
2018-03-15T06:20:48.133Z,88.37
2018-03-15T06:21:58.140Z,88.18
2018-03-15T06:23:08.129Z,88.18
2018-03-15T06:24:18.123Z,88.18
2018-03-15T06:25:27.853Z,89.98
2018-03-15T06:26:37.860Z,90.07
2018-03-15T06:27:47.858Z,90.07
2018-03-15T06:28:57.649Z,88.56
2018-03-15T06:30:06.838Z,89.13
2018-03-15T06:31:16.832Z,89.41
2018-03-15T06:32:26.557Z,89.51
2018-03-15T06:33:36.300Z,89.6
2018-03-15T06:34:46.292Z,89.79
2018-03-15T06:35:56.287Z,89.79
2018-03-15T06:37:05.749Z,89.51
2018-03-15T06:38:15.487Z,89.79
2018-03-15T06:39:25.213Z,90.26
2018-03-15T06:40:34.406Z,90.73
2018-03-15T06:41:44.140Z,90.92
2018-03-15T06:42:53.598Z,90.73
2018-03-15T06:44:03.323Z,90.83
2018-03-15T06:45:13.322Z,90.92
2018-03-15T06:46:23.053Z,90.64
2018-03-15T06:47:33.041Z,90.36
2018-03-15T06:48:43.030Z,90.92
2018-03-15T06:49:53.025Z,90.64
2018-03-15T06:51:03.014Z,90.73
2018-03-15T06:52:13.117Z,89.51
2018-03-15T06:53:23.162Z,89.22
2018-03-15T06:54:32.881Z,88.94
2018-03-15T06:55:42.884Z,88.94
2018-03-15T06:56:52.876Z,89.13
2018-03-15T06:58:02.868Z,89.6
2018-03-15T06:59:12.873Z,90.36
2018-03-15T07:00:22.601Z,90.55
2018-03-15T07:01:32.065Z,90.64
2018-03-15T07:02:42.060Z,91.02
2018-03-15T07:03:51.437Z,90.68
2018-03-15T07:05:01.167Z,90.78
2018-03-15T07:06:11.192Z,89.93
2018-03-15T07:07:21.194Z,89.55
2018-03-15T07:08:31.188Z,89.83
2018-03-15T07:09:40.924Z,89.55
2018-03-15T07:10:50.920Z,88.98
2018-03-15T07:12:00.912Z,89.55
2018-03-15T07:13:10.654Z,88.79
2018-03-15T07:14:20.646Z,88.51
2018-03-15T07:15:30.375Z,87.76
2018-03-15T07:16:40.423Z,87.57
2018-03-15T07:17:50.437Z,87.38
2018-03-15T07:19:00.427Z,87.66
2018-03-15T07:20:09.616Z,88.37
2018-03-15T07:21:19.077Z,88.65
2018-03-15T07:22:29.079Z,88.65
2018-03-15T07:23:39.068Z,88.65
2018-03-15T07:24:48.793Z,89.79
2018-03-15T07:25:58.518Z,90.92
2018-03-15T07:27:08.507Z,90.12
2018-03-15T07:28:17.975Z,90.12
2018-03-15T07:29:28.016Z,90.68
2018-03-15T07:30:38.003Z,90.21
2018-03-15T07:31:47.997Z,89.08
2018-03-15T07:32:58.000Z,89.17
2018-03-15T07:34:07.996Z,88.51
2018-03-15T07:35:18.016Z,88.42
2018-03-15T07:36:27.747Z,88.32
2018-03-15T07:37:37.475Z,88.51
2018-03-15T07:38:47.469Z,87.85
2018-03-15T07:39:57.460Z,87.85
2018-03-15T07:41:07.460Z,87.57
2018-03-15T07:42:17.457Z,88.51
2018-03-15T07:43:27.485Z,88.04
2018-03-15T07:44:37.531Z,88.32
2018-03-15T07:45:47.260Z,88.79
2018-03-15T07:46:56.984Z,89.27
2018-03-15T07:48:06.979Z,89.27
2018-03-15T07:49:16.172Z,89.36
2018-03-15T07:50:26.408Z,89.83
2018-03-15T07:51:36.138Z,90.12
2018-03-15T07:52:45.861Z,89.27
2018-03-15T07:53:55.855Z,89.27
2018-03-15T07:55:05.587Z,88.98
2018-03-15T07:56:15.331Z,89.45
2018-03-15T07:57:25.326Z,88.79
2018-03-15T07:58:35.322Z,88.98
2018-03-15T07:59:45.053Z,89.36
2018-03-15T08:00:54.250Z,89.17
2018-03-15T08:02:03.821Z,89.17
2018-03-15T08:03:13.869Z,88.98
2018-03-15T08:04:23.867Z,88.32
2018-03-15T08:05:33.341Z,88.6
2018-03-15T08:06:43.348Z,87.66
2018-03-15T08:07:53.345Z,88.04
2018-03-15T08:09:03.075Z,87.38
2018-03-15T08:10:12.807Z,87.71
2018-03-15T08:11:22.804Z,87.24
2018-03-15T08:12:32.639Z,87.33
2018-03-15T08:13:42.636Z,87.05
2018-03-15T08:14:52.634Z,86.76
2018-03-15T08:16:02.641Z,87.05
2018-03-15T08:17:12.684Z,86.38
2018-03-15T08:18:22.697Z,86.19
2018-03-15T08:19:32.701Z,85.91
2018-03-15T08:20:42.789Z,85.25
2018-03-15T08:21:52.789Z,85.53
2018-03-15T08:23:02.846Z,85.35
2018-03-15T08:24:12.609Z,84.88
2018-03-15T08:25:22.527Z,85.25
2018-03-15T08:26:32.260Z,84.78
2018-03-15T08:27:42.254Z,85.44
2018-03-15T08:28:51.981Z,85.44
2018-03-15T08:30:02.004Z,85.91
2018-03-15T08:31:11.473Z,86.33
2018-03-15T08:32:21.481Z,85.58
2018-03-15T08:33:32.096Z,85.11
2018-03-15T08:34:42.101Z,85.3
2018-03-15T08:35:51.830Z,84.64
2018-03-15T08:37:01.837Z,85.49
2018-03-15T08:38:11.026Z,85.2
2018-03-15T08:39:20.754Z,84.45
2018-03-15T08:40:30.746Z,84.16
2018-03-15T08:41:40.754Z,83.5
2018-03-15T08:42:50.813Z,83.31
2018-03-15T08:44:00.804Z,82.56
2018-03-15T08:45:10.799Z,82.75
2018-03-15T08:46:20.800Z,82.65
2018-03-15T08:47:30.263Z,82.75
2018-03-15T08:48:39.993Z,82.28
2018-03-15T08:49:49.724Z,81.71
2018-03-15T08:50:59.449Z,82.09
2018-03-15T08:52:08.910Z,81.42
2018-03-15T08:53:18.680Z,82.09
2018-03-15T08:54:28.408Z,82.28
2018-03-15T08:55:38.159Z,82.28
2018-03-15T08:56:48.157Z,82.28
2018-03-15T08:57:58.171Z,82.37
2018-03-15T08:59:07.898Z,82.09
2018-03-15T09:00:17.623Z,82.65
2018-03-15T09:01:27.357Z,82.75
2018-03-15T09:02:37.082Z,82.56
2018-03-15T09:03:47.081Z,82.75
2018-03-15T09:04:56.815Z,82.65
2018-03-15T09:06:06.966Z,82.22
2018-03-15T09:07:16.936Z,82.18
2018-03-15T09:08:26.665Z,82.22
2018-03-15T09:09:36.408Z,82.31
2018-03-15T09:10:46.409Z,81.46
2018-03-15T09:11:56.197Z,81.46
2018-03-15T09:13:06.190Z,80.76
2018-03-15T09:14:15.657Z,81.61
2018-03-15T09:15:25.655Z,82.09
2018-03-15T09:16:35.387Z,82.93
2018-03-15T09:17:45.499Z,83.03
2018-03-15T09:18:55.497Z,83.12
2018-03-15T09:20:05.512Z,83.5
2018-03-15T09:21:15.508Z,82.88
2018-03-15T09:22:25.236Z,82.69
2018-03-15T09:23:35.294Z,82.6
2018-03-15T09:24:45.166Z,82.31
2018-03-15T09:25:55.196Z,82.31
2018-03-15T09:27:04.934Z,81.84
2018-03-15T09:28:14.985Z,81.84
2018-03-15T09:29:24.987Z,81.56
2018-03-15T09:30:35.110Z,80.99
2018-03-15T09:31:45.176Z,80.71
2018-03-15T09:32:54.718Z,80.8
2018-03-15T09:34:04.262Z,80.37
2018-03-15T09:35:14.387Z,80.08
2018-03-15T09:36:24.476Z,79.8
2018-03-15T09:37:34.541Z,79.52
2018-03-15T09:38:44.653Z,79.14
2018-03-15T09:39:54.173Z,78.58
2018-03-15T09:41:03.698Z,78.58
2018-03-15T09:42:13.903Z,77.44
2018-03-15T09:43:24.010Z,77.72
2018-03-15T09:44:34.188Z,78.1
2018-03-15T09:45:44.404Z,77.91
2018-03-15T09:46:54.252Z,77.82
2018-03-15T09:48:04.353Z,78.48
2018-03-15T09:49:14.440Z,78.01
2018-03-15T09:50:24.534Z,77.91
2018-03-15T09:51:34.046Z,78.01
2018-03-15T09:52:44.149Z,77.15
2018-03-15T09:53:54.243Z,78.29
2018-03-15T09:55:04.104Z,78.2
2018-03-15T09:56:14.206Z,77.91
2018-03-15T09:57:24.278Z,77.72
2018-03-15T09:58:34.355Z,77.91
2018-03-15T09:59:44.472Z,77.91
2018-03-15T10:00:54.552Z,77.82
2018-03-15T10:02:04.352Z,78.2
2018-03-15T10:03:14.485Z,77.82
2018-03-15T10:04:24.588Z,76.97
2018-03-15T10:05:34.654Z,76.97
2018-03-15T10:06:44.486Z,76.31
2018-03-15T10:07:53.981Z,76.5
2018-03-15T10:09:03.872Z,76.31
2018-03-15T10:10:14.028Z,76.44
2018-03-15T10:11:24.175Z,76.72
2018-03-15T10:12:34.226Z,76.44
2018-03-15T10:13:44.289Z,76.06
2018-03-15T10:14:54.068Z,75.31
2018-03-15T10:16:03.888Z,75.21
2018-03-15T10:17:13.980Z,74.17
2018-03-15T10:18:23.756Z,74.17
2018-03-15T10:19:33.263Z,75.05
2018-03-15T10:20:43.349Z,74.87
2018-03-15T10:21:53.532Z,75.05
2018-03-15T10:23:03.625Z,74.77
2018-03-15T10:24:13.699Z,74.58
2018-03-15T10:25:29.302Z,73.45
2018-03-15T10:26:39.231Z,72.31
2018-03-15T10:27:49.023Z,72.22
2018-03-15T10:28:58.824Z,72.88
2018-03-15T10:30:08.653Z,73.45
2018-03-15T10:31:18.515Z,72.03
2018-03-15T10:32:28.329Z,72.56
2018-03-15T10:33:38.585Z,72.85
2018-03-15T10:34:49.234Z,73.79
2018-03-15T10:36:00.025Z,74.17
2018-03-15T10:37:10.723Z,73.35
2018-03-15T10:38:22.096Z,73.6
2018-03-15T10:39:33.883Z,73.5
2018-03-15T10:40:45.545Z,74.07
2018-03-15T10:41:57.015Z,74.45
2018-03-15T10:43:06.540Z,74.93
2018-03-15T10:44:16.856Z,75.02
2018-03-15T10:45:26.680Z,74.36
2018-03-15T10:46:36.859Z,74.3
2018-03-15T10:47:47.052Z,74.21
2018-03-15T10:48:57.258Z,74.21
2018-03-15T10:50:07.081Z,73.54
2018-03-15T10:51:16.883Z,72.69
2018-03-15T10:52:26.937Z,73.16
2018-03-15T10:53:37.030Z,72.6
2018-03-15T10:54:47.122Z,72.69
2018-03-15T10:55:56.932Z,72.63
2018-03-15T10:57:07.063Z,72.53
2018-03-15T10:58:16.876Z,72.34
2018-03-15T10:59:27.006Z,72.06
2018-03-15T11:00:37.119Z,71.88
2018-03-15T11:01:46.633Z,71.12
2018-03-15T11:02:56.769Z,71.4
2018-03-15T11:04:06.895Z,70.49
2018-03-15T11:05:16.985Z,70.3
2018-03-15T11:06:27.084Z,70.83
2018-03-15T11:07:36.882Z,70.11
2018-03-15T11:08:46.690Z,69.51
2018-03-15T11:09:56.765Z,70.26
2018-03-15T11:11:06.863Z,70.74
2018-03-15T11:12:16.648Z,70.78
2018-03-15T11:13:26.456Z,70.39
2018-03-15T11:14:37.220Z,70.01
2018-03-15T11:15:47.038Z,70.11
2018-03-15T11:16:57.133Z,69.92
2018-03-15T11:18:07.312Z,70.01
2018-03-15T11:19:17.473Z,69.92
2018-03-15T11:20:27.277Z,69.82
2018-03-15T11:21:37.078Z,69.77
2018-03-15T11:22:46.882Z,69.2
2018-03-15T11:23:56.887Z,68.91
2018-03-15T11:25:07.548Z,69.01
2018-03-15T11:26:17.678Z,69.2
2018-03-15T11:27:27.488Z,68.91
2018-03-15T11:28:37.297Z,68.25
2018-03-15T11:29:47.424Z,67.96
2018-03-15T11:30:57.499Z,68.06
2018-03-15T11:32:07.034Z,68.44
2018-03-15T11:33:17.128Z,67.96
2018-03-15T11:34:26.910Z,67.77
2018-03-15T11:35:36.982Z,67.68
2018-03-15T11:36:47.091Z,68
2018-03-15T11:37:58.238Z,67.52
2018-03-15T11:39:09.865Z,66.96
2018-03-15T11:40:21.922Z,66.86
2018-03-15T11:41:34.068Z,66.89
2018-03-15T11:42:45.816Z,66.71
2018-03-15T11:43:57.002Z,65
2018-03-15T11:45:07.097Z,65.19
2018-03-15T11:46:17.210Z,65
2018-03-15T11:47:27.345Z,63.76
2018-03-15T11:48:36.986Z,63.92
2018-03-15T11:49:46.936Z,64.78
2018-03-15T11:50:57.038Z,64.97
2018-03-15T11:52:06.824Z,64.78
2018-03-15T11:53:16.378Z,64.74
2018-03-15T11:54:26.186Z,65.5
2018-03-15T11:55:35.700Z,65.88
2018-03-15T11:56:45.559Z,66.89
2018-03-15T11:57:55.375Z,67.65
2018-03-15T11:59:05.523Z,68.21
2018-03-15T12:00:15.080Z,68.46
2018-03-15T12:01:25.178Z,69.98
2018-03-15T12:02:35.254Z,69.64
2018-03-15T12:03:45.362Z,69.17
2018-03-15T12:04:55.193Z,68.98
2018-03-15T12:06:05.257Z,68.94
2018-03-15T12:07:15.123Z,69.89
2018-03-15T12:08:25.207Z,69.7
2018-03-15T12:09:34.994Z,70.36
2018-03-15T12:10:44.801Z,71.65
2018-03-15T12:11:54.905Z,72.69
2018-03-15T12:13:05.004Z,72.5
2018-03-15T12:14:15.137Z,73.54
2018-03-15T12:15:25.228Z,74.3
2018-03-15T12:16:34.991Z,75.02
2018-03-15T12:17:45.004Z,75.68
2018-03-15T12:18:54.745Z,76.25
2018-03-15T12:20:04.494Z,76.63
2018-03-15T12:21:14.508Z,76.63
2018-03-15T12:22:24.516Z,76.63
2018-03-15T12:23:34.252Z,77.1
2018-03-15T12:24:43.985Z,76.53
2018-03-15T12:25:53.727Z,75.96
2018-03-15T12:27:03.194Z,75.31
2018-03-15T12:28:12.956Z,74.96
2018-03-15T12:29:22.695Z,75.05
2018-03-15T12:30:32.432Z,74.96
2018-03-15T12:31:42.177Z,74.87
2018-03-15T12:32:51.382Z,73.54
2018-03-15T12:34:01.405Z,72.44
2018-03-15T12:35:11.142Z,71.31
2018-03-15T12:36:21.154Z,70.39
2018-03-15T12:37:30.904Z,69.45
2018-03-15T12:38:40.666Z,70.17
2018-03-15T12:39:50.404Z,70.3
2018-03-15T12:41:00.150Z,70.2
2018-03-15T12:42:09.901Z,69.73
2018-03-15T12:43:19.912Z,68.69
2018-03-15T12:44:29.125Z,68.12
2018-03-15T12:45:39.136Z,66.83
2018-03-15T12:46:49.218Z,67.11
2018-03-15T12:47:59.332Z,65.59
2018-03-15T12:49:09.077Z,65.97
2018-03-15T12:50:19.090Z,66.16
2018-03-15T12:51:28.648Z,65.69
2018-03-15T12:52:38.665Z,65.22
2018-03-15T12:53:48.413Z,65.69
2018-03-15T12:54:58.157Z,65.22
2018-03-15T12:56:08.170Z,64.78
2018-03-15T12:57:18.112Z,64.87
2018-03-15T12:58:28.350Z,64.11
2018-03-15T12:59:38.365Z,63.76
2018-03-15T13:00:48.374Z,63.39
2018-03-15T13:01:58.122Z,63.95
2018-03-15T13:03:07.871Z,62.66
2018-03-15T13:04:17.624Z,61.8
2018-03-15T13:05:27.369Z,61.04
2018-03-15T13:06:37.114Z,60.1
2018-03-15T13:07:47.127Z,60.28
2018-03-15T13:08:57.137Z,59.65
2018-03-15T13:10:07.155Z,59.93
2018-03-15T13:11:16.905Z,59.01
2018-03-15T13:12:26.658Z,58.35
2018-03-15T13:13:36.671Z,57.97
2018-03-15T13:14:46.686Z,57.11
2018-03-15T13:15:56.704Z,57.4
2018-03-15T13:17:06.235Z,57.68
2018-03-15T13:18:15.722Z,58.32
2018-03-15T13:19:25.733Z,58.51
2018-03-15T13:20:35.211Z,58
2018-03-15T13:21:44.736Z,58.67
2018-03-15T13:22:54.537Z,58.83
2018-03-15T13:24:04.306Z,60.06
2018-03-15T13:25:14.049Z,61.46
2018-03-15T13:26:24.075Z,61.55
2018-03-15T13:27:33.759Z,61.27
2018-03-15T13:28:43.770Z,62.31
2018-03-15T13:29:53.782Z,62.37
2018-03-15T13:31:03.806Z,62.37
2018-03-15T13:32:13.014Z,62.37
2018-03-15T13:33:22.221Z,62.37
2018-03-15T13:34:32.350Z,63.13
2018-03-15T13:35:42.204Z,63.42
2018-03-15T13:36:52.211Z,63.42
2018-03-15T13:38:01.699Z,63.51
2018-03-15T13:39:11.471Z,64.23
2018-03-15T13:40:21.681Z,64.52
2018-03-15T13:41:31.157Z,64.61
2018-03-15T13:42:41.173Z,64.61
2018-03-15T13:43:51.182Z,65.19
2018-03-15T13:45:00.966Z,65.09
2018-03-15T13:46:10.474Z,65.75
2018-03-15T13:47:19.951Z,65.72
2018-03-15T13:48:30.027Z,66.13
2018-03-15T13:49:40.332Z,66.28
2018-03-15T13:50:50.123Z,66.22
2018-03-15T13:52:00.246Z,66.38
2018-03-15T13:53:10.338Z,66
2018-03-15T13:54:20.349Z,66.57
2018-03-15T13:55:30.092Z,66.28
2018-03-15T13:56:39.832Z,66.28
2018-03-15T13:57:49.840Z,66.86
2018-03-15T13:58:59.594Z,66.76
2018-03-15T14:00:09.332Z,66.86
2018-03-15T14:01:19.339Z,66.57
2018-03-15T14:02:28.817Z,66.76
2018-03-15T14:03:38.934Z,66.86
2018-03-15T14:04:49.046Z,67.05
2018-03-15T14:05:59.096Z,66.76
2018-03-15T14:07:08.306Z,66.38
2018-03-15T14:08:18.043Z,66.22
2018-03-15T14:09:27.787Z,66.13
2018-03-15T14:10:37.795Z,66.13
2018-03-15T14:11:47.557Z,65.19
2018-03-15T14:12:57.572Z,64.9
2018-03-15T14:14:07.044Z,64.36
2018-03-15T14:15:16.514Z,64.36
2018-03-15T14:16:26.587Z,63.6
2018-03-15T14:17:36.329Z,63.32
2018-03-15T14:18:46.162Z,63.7
2018-03-15T14:19:56.184Z,63.35
2018-03-15T14:21:05.393Z,63.35
2018-03-15T14:22:15.424Z,61.93
2018-03-15T14:23:25.165Z,61.2
2018-03-15T14:24:34.638Z,61.68
2018-03-15T14:25:44.375Z,61.11
2018-03-15T14:26:54.425Z,60.44
2018-03-15T14:28:04.159Z,58.83
2018-03-15T14:29:14.218Z,59.68
2018-03-15T14:30:24.582Z,60.22
2018-03-15T14:31:34.597Z,60.98
2018-03-15T14:32:44.606Z,61.83
2018-03-15T14:33:54.612Z,61.65
2018-03-15T14:35:04.370Z,60.73
2018-03-15T14:36:14.374Z,60.22
2018-03-15T14:37:24.398Z,61.08
2018-03-15T14:38:34.402Z,61.83
2018-03-15T14:39:44.515Z,62.21
2018-03-15T14:40:54.308Z,61.8
2018-03-15T14:42:04.411Z,62.18
2018-03-15T14:43:14.164Z,62.08
2018-03-15T14:44:23.895Z,63.51
2018-03-15T14:45:33.641Z,63.76
2018-03-15T14:46:43.722Z,64.77
2018-03-15T14:47:53.739Z,65.34
2018-03-15T14:49:03.480Z,65.91
2018-03-15T14:50:13.220Z,65.91
2018-03-15T14:51:22.961Z,66.67
2018-03-15T14:52:32.786Z,66.28
2018-03-15T14:53:42.535Z,65.53
2018-03-15T14:54:52.275Z,65.91
2018-03-15T14:56:01.742Z,65.94
2018-03-15T14:57:11.209Z,65.09
2018-03-15T14:58:21.211Z,65
2018-03-15T14:59:30.950Z,65.25
2018-03-15T15:00:40.684Z,65.63
2018-03-15T15:01:50.161Z,65.91
2018-03-15T15:02:59.904Z,64.58
2018-03-15T15:04:09.644Z,64.52
2018-03-15T15:05:19.646Z,64.14
2018-03-15T15:06:29.648Z,63.79